sensor_id;sensor_type;location;lat;lon;timestamp;pressure;altitude;pressure_sealevel;temperature;humidity
70027;BME280;57506;50.092;15.804;2022-07-12T00:01:45;99655.59;;;11.97;83.36
70027;BME280;57506;50.092;15.804;2022-07-12T00:04:11;99660.47;;;11.87;84.62
70027;BME280;57506;50.092;15.804;2022-07-12T00:06:36;99652.94;;;11.82;84.42
70027;BME280;57506;50.092;15.804;2022-07-12T00:09:03;99650.81;;;11.78;86.89
70027;BME280;57506;50.092;15.804;2022-07-12T00:11:28;99657.50;;;11.82;87.72
70027;BME280;57506;50.092;15.804;2022-07-12T00:13:54;99659.56;;;11.80;87.21
70027;BME280;57506;50.092;15.804;2022-07-12T00:16:19;99663.09;;;11.66;90.04
70027;BME280;57506;50.092;15.804;2022-07-12T00:18:45;99655.41;;;11.48;92.33
70027;BME280;57506;50.092;15.804;2022-07-12T00:21:10;99643.03;;;11.24;93.79
70027;BME280;57506;50.092;15.804;2022-07-12T00:23:36;99668.56;;;11.36;92.68
70027;BME280;57506;50.092;15.804;2022-07-12T00:26:02;99649.91;;;11.41;92.61
70027;BME280;57506;50.092;15.804;2022-07-12T00:28:32;99650.56;;;11.43;92.61
70027;BME280;57506;50.092;15.804;2022-07-12T00:30:58;99659.41;;;11.37;94.59
70027;BME280;57506;50.092;15.804;2022-07-12T00:33:24;99661.00;;;11.32;95.46
70027;BME280;57506;50.092;15.804;2022-07-12T00:35:50;99645.09;;;11.22;96.30
70027;BME280;57506;50.092;15.804;2022-07-12T00:38:16;99660.66;;;11.20;97.22
70027;BME280;57506;50.092;15.804;2022-07-12T00:40:41;99662.03;;;11.16;97.25
70027;BME280;57506;50.092;15.804;2022-07-12T00:43:07;99639.53;;;11.09;96.31
70027;BME280;57506;50.092;15.804;2022-07-12T00:45:32;99654.59;;;11.18;94.95
70027;BME280;57506;50.092;15.804;2022-07-12T00:47:59;99657.56;;;11.23;93.82
70027;BME280;57506;50.092;15.804;2022-07-12T00:50:24;99666.75;;;11.43;91.92
70027;BME280;57506;50.092;15.804;2022-07-12T00:52:52;99657.72;;;11.66;89.83
70027;BME280;57506;50.092;15.804;2022-07-12T00:55:19;99654.81;;;11.67;90.50
70027;BME280;57506;50.092;15.804;2022-07-12T00:57:46;99668.03;;;11.77;88.77
70027;BME280;57506;50.092;15.804;2022-07-12T01:00:15;99665.81;;;11.80;89.22
70027;BME280;57506;50.092;15.804;2022-07-12T01:02:42;99658.06;;;11.77;89.67
70027;BME280;57506;50.092;15.804;2022-07-12T01:05:08;99655.25;;;11.85;87.33
70027;BME280;57506;50.092;15.804;2022-07-12T01:07:35;99663.44;;;11.92;86.89
70027;BME280;57506;50.092;15.804;2022-07-12T01:10:01;99660.16;;;11.97;84.16
70027;BME280;57506;50.092;15.804;2022-07-12T01:12:28;99653.16;;;12.02;85.03
70027;BME280;57506;50.092;15.804;2022-07-12T01:14:53;99662.34;;;12.08;83.83
70027;BME280;57506;50.092;15.804;2022-07-12T01:17:24;99661.06;;;12.04;83.86
70027;BME280;57506;50.092;15.804;2022-07-12T01:19:52;99664.53;;;12.19;85.92
70027;BME280;57506;50.092;15.804;2022-07-12T01:22:18;99654.44;;;12.06;85.28
70027;BME280;57506;50.092;15.804;2022-07-12T01:24:44;99667.75;;;12.08;84.37
70027;BME280;57506;50.092;15.804;2022-07-12T01:27:11;99658.53;;;12.02;84.16
70027;BME280;57506;50.092;15.804;2022-07-12T01:29:38;99659.78;;;12.00;87.13
70027;BME280;57506;50.092;15.804;2022-07-12T01:32:04;99673.09;;;12.01;90.06
70027;BME280;57506;50.092;15.804;2022-07-12T01:34:54;99664.34;;;11.99;84.19
70027;BME280;57506;50.092;15.804;2022-07-12T01:37:22;99671.88;;;12.04;83.28
70027;BME280;57506;50.092;15.804;2022-07-12T01:39:53;99670.28;;;12.09;86.22
70027;BME280;57506;50.092;15.804;2022-07-12T01:42:20;99672.69;;;12.04;84.34
70027;BME280;57506;50.092;15.804;2022-07-12T01:44:48;99661.91;;;12.04;85.65
70027;BME280;57506;50.092;15.804;2022-07-12T01:47:14;99675.03;;;12.07;88.31
70027;BME280;57506;50.092;15.804;2022-07-12T01:49:40;99672.69;;;12.04;88.01
70027;BME280;57506;50.092;15.804;2022-07-12T01:52:06;99669.16;;;12.04;86.62
70027;BME280;57506;50.092;15.804;2022-07-12T01:54:32;99662.69;;;11.98;88.61
70027;BME280;57506;50.092;15.804;2022-07-12T01:56:58;99664.72;;;11.96;87.53
70027;BME280;57506;50.092;15.804;2022-07-12T01:59:23;99672.97;;;12.09;88.17
70027;BME280;57506;50.092;15.804;2022-07-12T02:01:49;99677.53;;;12.09;84.09
70027;BME280;57506;50.092;15.804;2022-07-12T02:04:18;99681.53;;;12.13;84.78
70027;BME280;57506;50.092;15.804;2022-07-12T02:06:44;99680.81;;;12.25;87.83
70027;BME280;57506;50.092;15.804;2022-07-12T02:09:13;99683.91;;;12.22;83.38
70027;BME280;57506;50.092;15.804;2022-07-12T02:11:39;99687.25;;;12.24;86.48
70027;BME280;57506;50.092;15.804;2022-07-12T02:14:05;99688.09;;;12.25;83.45
70027;BME280;57506;50.092;15.804;2022-07-12T02:16:30;99694.06;;;12.20;88.19
70027;BME280;57506;50.092;15.804;2022-07-12T02:18:57;99683.25;;;12.20;86.70
70027;BME280;57506;50.092;15.804;2022-07-12T02:21:22;99679.53;;;12.21;86.78
70027;BME280;57506;50.092;15.804;2022-07-12T02:23:48;99687.72;;;12.28;85.93
70027;BME280;57506;50.092;15.804;2022-07-12T02:26:13;99682.97;;;12.30;85.66
70027;BME280;57506;50.092;15.804;2022-07-12T02:28:39;99685.22;;;12.26;86.35
70027;BME280;57506;50.092;15.804;2022-07-12T02:31:04;99680.31;;;12.15;87.98
70027;BME280;57506;50.092;15.804;2022-07-12T02:33:30;99690.47;;;12.13;87.67
70027;BME280;57506;50.092;15.804;2022-07-12T02:35:56;99696.91;;;12.12;89.26
70027;BME280;57506;50.092;15.804;2022-07-12T02:38:21;99704.94;;;12.06;91.07
70027;BME280;57506;50.092;15.804;2022-07-12T02:40:47;99702.53;;;11.96;91.59
70027;BME280;57506;50.092;15.804;2022-07-12T02:43:22;99699.56;;;11.91;88.99
70027;BME280;57506;50.092;15.804;2022-07-12T02:45:49;99697.91;;;11.90;89.75
70027;BME280;57506;50.092;15.804;2022-07-12T02:48:15;99702.47;;;11.89;90.33
70027;BME280;57506;50.092;15.804;2022-07-12T02:50:41;99694.28;;;11.83;89.96
70027;BME280;57506;50.092;15.804;2022-07-12T02:53:07;99697.53;;;11.93;90.10
70027;BME280;57506;50.092;15.804;2022-07-12T02:55:33;99702.91;;;11.93;89.08
70027;BME280;57506;50.092;15.804;2022-07-12T02:57:59;99702.41;;;12.04;89.67
70027;BME280;57506;50.092;15.804;2022-07-12T03:00:25;99706.28;;;11.95;90.72
70027;BME280;57506;50.092;15.804;2022-07-12T03:02:50;99709.16;;;11.94;88.99
70027;BME280;57506;50.092;15.804;2022-07-12T03:05:16;99706.28;;;11.95;88.12
70027;BME280;57506;50.092;15.804;2022-07-12T03:07:42;99698.81;;;11.97;89.09
70027;BME280;57506;50.092;15.804;2022-07-12T03:10:08;99705.53;;;12.01;86.92
70027;BME280;57506;50.092;15.804;2022-07-12T03:12:34;99713.88;;;12.06;87.75
70027;BME280;57506;50.092;15.804;2022-07-12T03:15:00;99723.28;;;12.10;88.11
70027;BME280;57506;50.092;15.804;2022-07-12T03:17:25;99722.25;;;12.11;88.29
70027;BME280;57506;50.092;15.804;2022-07-12T03:19:51;99726.25;;;12.15;89.10
70027;BME280;57506;50.092;15.804;2022-07-12T03:22:17;99721.03;;;12.14;89.24
70027;BME280;57506;50.092;15.804;2022-07-12T03:24:42;99715.56;;;12.07;89.27
70027;BME280;57506;50.092;15.804;2022-07-12T03:27:08;99710.16;;;12.07;89.23
70027;BME280;57506;50.092;15.804;2022-07-12T03:29:33;99721.59;;;12.09;88.61
70027;BME280;57506;50.092;15.804;2022-07-12T03:31:59;99719.56;;;12.11;88.23
70027;BME280;57506;50.092;15.804;2022-07-12T03:34:24;99709.41;;;12.13;89.37
70027;BME280;57506;50.092;15.804;2022-07-12T03:36:50;99714.69;;;12.43;87.30
70027;BME280;57506;50.092;15.804;2022-07-12T03:39:15;99721.25;;;12.34;86.23
70027;BME280;57506;50.092;15.804;2022-07-12T03:41:41;99718.94;;;12.31;88.27
70027;BME280;57506;50.092;15.804;2022-07-12T03:44:06;99716.22;;;12.31;86.91
70027;BME280;57506;50.092;15.804;2022-07-12T03:46:32;99713.16;;;12.34;86.32
70027;BME280;57506;50.092;15.804;2022-07-12T03:49:00;99703.16;;;12.34;87.80
70027;BME280;57506;50.092;15.804;2022-07-12T03:51:27;99720.84;;;12.37;86.71
70027;BME280;57506;50.092;15.804;2022-07-12T03:53:52;99715.06;;;12.40;86.06
70027;BME280;57506;50.092;15.804;2022-07-12T03:56:18;99705.03;;;12.34;85.48
70027;BME280;57506;50.092;15.804;2022-07-12T03:59:02;99712.34;;;12.40;84.17
70027;BME280;57506;50.092;15.804;2022-07-12T04:01:28;99732.56;;;12.44;84.46
70027;BME280;57506;50.092;15.804;2022-07-12T04:03:55;99712.63;;;12.45;84.03
70027;BME280;57506;50.092;15.804;2022-07-12T04:06:21;99709.97;;;12.51;83.19
70027;BME280;57506;50.092;15.804;2022-07-12T04:08:47;99718.81;;;12.60;82.92
70027;BME280;57506;50.092;15.804;2022-07-12T04:11:12;99724.03;;;12.61;82.18
70027;BME280;57506;50.092;15.804;2022-07-12T04:13:38;99727.78;;;12.67;82.35
70027;BME280;57506;50.092;15.804;2022-07-12T04:16:04;99726.38;;;12.71;83.29
70027;BME280;57506;50.092;15.804;2022-07-12T04:18:31;99726.44;;;12.78;82.71
70027;BME280;57506;50.092;15.804;2022-07-12T04:20:56;99725.53;;;12.92;82.87
70027;BME280;57506;50.092;15.804;2022-07-12T04:23:22;99726.16;;;12.94;80.89
70027;BME280;57506;50.092;15.804;2022-07-12T04:25:47;99716.38;;;12.93;80.54
70027;BME280;57506;50.092;15.804;2022-07-12T04:28:13;99724.31;;;12.94;80.68
70027;BME280;57506;50.092;15.804;2022-07-12T04:30:38;99705.31;;;12.88;81.13
70027;BME280;57506;50.092;15.804;2022-07-12T04:33:04;99724.69;;;12.91;82.26
70027;BME280;57506;50.092;15.804;2022-07-12T04:35:29;99723.66;;;12.92;79.82
70027;BME280;57506;50.092;15.804;2022-07-12T04:37:54;99726.63;;;12.98;79.91
70027;BME280;57506;50.092;15.804;2022-07-12T04:40:20;99729.34;;;13.04;79.47
70027;BME280;57506;50.092;15.804;2022-07-12T04:42:46;99736.16;;;13.15;79.44
70027;BME280;57506;50.092;15.804;2022-07-12T04:45:11;99728.31;;;13.26;78.50
70027;BME280;57506;50.092;15.804;2022-07-12T04:47:37;99738.06;;;13.55;77.99
70027;BME280;57506;50.092;15.804;2022-07-12T04:50:07;99725.31;;;13.97;76.12
70027;BME280;57506;50.092;15.804;2022-07-12T04:52:34;99725.03;;;14.26;74.89
70027;BME280;57506;50.092;15.804;2022-07-12T04:54:59;99727.41;;;14.69;74.02
70027;BME280;57506;50.092;15.804;2022-07-12T04:57:25;99739.97;;;14.90;72.92
70027;BME280;57506;50.092;15.804;2022-07-12T04:59:50;99737.25;;;15.10;72.72
70027;BME280;57506;50.092;15.804;2022-07-12T05:02:16;99734.28;;;15.31;70.99
70027;BME280;57506;50.092;15.804;2022-07-12T05:04:41;99739.94;;;15.36;70.75
70027;BME280;57506;50.092;15.804;2022-07-12T05:07:07;99739.94;;;15.36;71.08
70027;BME280;57506;50.092;15.804;2022-07-12T05:09:32;99738.06;;;15.17;71.37
70027;BME280;57506;50.092;15.804;2022-07-12T05:11:58;99736.38;;;15.35;72.10
70027;BME280;57506;50.092;15.804;2022-07-12T05:14:24;99748.09;;;15.16;69.67
70027;BME280;57506;50.092;15.804;2022-07-12T05:16:49;99749.97;;;15.35;69.22
70027;BME280;57506;50.092;15.804;2022-07-12T05:19:15;99755.16;;;15.63;71.21
70027;BME280;57506;50.092;15.804;2022-07-12T05:21:41;99744.06;;;15.71;68.23
70027;BME280;57506;50.092;15.804;2022-07-12T05:24:07;99759.78;;;15.56;67.12
70027;BME280;57506;50.092;15.804;2022-07-12T05:26:33;99761.22;;;15.59;68.95
70027;BME280;57506;50.092;15.804;2022-07-12T05:28:58;99757.03;;;15.63;67.50
70027;BME280;57506;50.092;15.804;2022-07-12T05:31:24;99746.78;;;15.45;68.32
70027;BME280;57506;50.092;15.804;2022-07-12T05:33:49;99761.41;;;15.44;67.67
70027;BME280;57506;50.092;15.804;2022-07-12T05:36:15;99761.44;;;15.31;68.30
70027;BME280;57506;50.092;15.804;2022-07-12T05:38:41;99772.31;;;15.31;68.66
70027;BME280;57506;50.092;15.804;2022-07-12T05:41:06;99761.47;;;15.24;68.38
70027;BME280;57506;50.092;15.804;2022-07-12T05:43:32;99761.44;;;15.31;68.65
70027;BME280;57506;50.092;15.804;2022-07-12T05:45:57;99768.75;;;15.37;68.82
70027;BME280;57506;50.092;15.804;2022-07-12T05:48:23;99784.41;;;15.48;68.60
70027;BME280;57506;50.092;15.804;2022-07-12T05:50:48;99774.59;;;15.60;69.96
70027;BME280;57506;50.092;15.804;2022-07-12T05:53:14;99776.84;;;15.77;69.73
70027;BME280;57506;50.092;15.804;2022-07-12T05:55:50;99787.03;;;16.01;69.74
70027;BME280;57506;50.092;15.804;2022-07-12T05:58:16;99784.69;;;16.18;69.47
70027;BME280;57506;50.092;15.804;2022-07-12T06:00:42;99785.28;;;16.20;68.91
70027;BME280;57506;50.092;15.804;2022-07-12T06:03:08;99780.06;;;16.18;66.97
70027;BME280;57506;50.092;15.804;2022-07-12T06:05:34;99780.06;;;16.18;69.52
70027;BME280;57506;50.092;15.804;2022-07-12T06:07:59;99782.16;;;16.16;68.21
70027;BME280;57506;50.092;15.804;2022-07-12T06:10:25;99786.28;;;16.25;67.93
70027;BME280;57506;50.092;15.804;2022-07-12T06:12:50;99786.78;;;16.09;66.70
70027;BME280;57506;50.092;15.804;2022-07-12T06:15:16;99776.84;;;15.90;68.98
70027;BME280;57506;50.092;15.804;2022-07-12T06:17:41;99778.88;;;16.01;70.08
70027;BME280;57506;50.092;15.804;2022-07-12T06:20:08;99785.09;;;16.15;68.61
70027;BME280;57506;50.092;15.804;2022-07-12T06:22:34;99786.47;;;15.86;69.08
70027;BME280;57506;50.092;15.804;2022-07-12T06:25:00;99786.00;;;16.02;70.34
70027;BME280;57506;50.092;15.804;2022-07-12T06:27:25;99783.50;;;15.94;70.05
70027;BME280;57506;50.092;15.804;2022-07-12T06:29:51;99792.25;;;16.02;69.89
70027;BME280;57506;50.092;15.804;2022-07-12T06:32:17;99789.69;;;16.14;68.05
70027;BME280;57506;50.092;15.804;2022-07-12T06:34:43;99778.59;;;16.22;70.15
70027;BME280;57506;50.092;15.804;2022-07-12T06:37:09;99781.53;;;16.65;67.53
70027;BME280;57506;50.092;15.804;2022-07-12T06:39:35;99770.22;;;16.68;65.60
70027;BME280;57506;50.092;15.804;2022-07-12T06:42:01;99783.91;;;16.87;66.83
70027;BME280;57506;50.092;15.804;2022-07-12T06:44:32;99775.09;;;17.16;69.31
70027;BME280;57506;50.092;15.804;2022-07-12T06:46:58;99769.13;;;17.26;66.21
70027;BME280;57506;50.092;15.804;2022-07-12T06:49:24;99771.63;;;17.02;67.03
70027;BME280;57506;50.092;15.804;2022-07-12T06:51:50;99773.06;;;17.30;66.21
70027;BME280;57506;50.092;15.804;2022-07-12T06:54:16;99778.41;;;17.43;65.90
70027;BME280;57506;50.092;15.804;2022-07-12T06:56:42;99783.09;;;17.54;67.97
70027;BME280;57506;50.092;15.804;2022-07-12T06:59:07;99771.53;;;17.16;65.18
70027;BME280;57506;50.092;15.804;2022-07-12T07:01:38;99777.09;;;17.02;66.89
70027;BME280;57506;50.092;15.804;2022-07-12T07:04:05;99780.25;;;16.99;67.89
70027;BME280;57506;50.092;15.804;2022-07-12T07:06:31;99772.28;;;17.23;66.64
70027;BME280;57506;50.092;15.804;2022-07-12T07:08:56;99773.44;;;17.58;64.39
70027;BME280;57506;50.092;15.804;2022-07-12T07:11:22;99778.09;;;17.76;65.57
70027;BME280;57506;50.092;15.804;2022-07-12T07:13:47;99776.97;;;17.16;66.63
70027;BME280;57506;50.092;15.804;2022-07-12T07:16:13;99771.28;;;17.42;68.79
70027;BME280;57506;50.092;15.804;2022-07-12T07:18:39;99772.50;;;17.46;64.65
70027;BME280;57506;50.092;15.804;2022-07-12T07:21:06;99771.53;;;17.59;66.91
70027;BME280;57506;50.092;15.804;2022-07-12T07:23:32;99764.25;;;17.34;64.63
70027;BME280;57506;50.092;15.804;2022-07-12T07:25:58;99768.09;;;17.02;65.63
70027;BME280;57506;50.092;15.804;2022-07-12T07:28:24;99772.34;;;16.91;66.24
70027;BME280;57506;50.092;15.804;2022-07-12T07:30:49;99773.38;;;17.40;67.59
70027;BME280;57506;50.092;15.804;2022-07-12T07:33:22;99758.97;;;17.14;66.17
70027;BME280;57506;50.092;15.804;2022-07-12T07:35:48;99759.28;;;17.25;66.10
70027;BME280;57506;50.092;15.804;2022-07-12T07:38:15;99773.31;;;17.03;65.98
70027;BME280;57506;50.092;15.804;2022-07-12T07:40:41;99769.56;;;16.98;67.99
70027;BME280;57506;50.092;15.804;2022-07-12T07:43:08;99772.16;;;17.18;69.03
70027;BME280;57506;50.092;15.804;2022-07-12T07:45:34;99761.34;;;17.72;67.96
70027;BME280;57506;50.092;15.804;2022-07-12T07:48:00;99774.09;;;17.97;69.92
70027;BME280;57506;50.092;15.804;2022-07-12T07:50:27;99759.63;;;18.14;64.02
70027;BME280;57506;50.092;15.804;2022-07-12T07:52:53;99765.47;;;18.00;63.76
70027;BME280;57506;50.092;15.804;2022-07-12T07:55:18;99762.56;;;17.76;66.18
70027;BME280;57506;50.092;15.804;2022-07-12T07:57:44;99772.03;;;17.92;68.52
70027;BME280;57506;50.092;15.804;2022-07-12T08:00:12;99771.88;;;17.87;64.01
70027;BME280;57506;50.092;15.804;2022-07-12T08:02:38;99769.09;;;17.94;64.87
70027;BME280;57506;50.092;15.804;2022-07-12T08:05:04;99759.31;;;18.04;64.97
70027;BME280;57506;50.092;15.804;2022-07-12T08:07:29;99762.97;;;18.16;66.40
70027;BME280;57506;50.092;15.804;2022-07-12T08:09:55;99767.47;;;18.23;64.38
70027;BME280;57506;50.092;15.804;2022-07-12T08:12:20;99766.34;;;18.30;64.16
70027;BME280;57506;50.092;15.804;2022-07-12T08:14:46;99766.31;;;18.78;65.61
70027;BME280;57506;50.092;15.804;2022-07-12T08:17:11;99765.88;;;18.93;63.00
70027;BME280;57506;50.092;15.804;2022-07-12T08:19:37;99752.47;;;19.03;63.49
70027;BME280;57506;50.092;15.804;2022-07-12T08:22:03;99762.00;;;19.12;61.68
70027;BME280;57506;50.092;15.804;2022-07-12T08:24:29;99760.66;;;19.03;59.92
70027;BME280;57506;50.092;15.804;2022-07-12T08:26:54;99758.50;;;18.94;59.77
70027;BME280;57506;50.092;15.804;2022-07-12T08:29:20;99758.19;;;19.37;59.94
70027;BME280;57506;50.092;15.804;2022-07-12T08:31:45;99756.28;;;19.49;60.01
70027;BME280;57506;50.092;15.804;2022-07-12T08:34:11;99745.88;;;19.58;59.52
70027;BME280;57506;50.092;15.804;2022-07-12T08:36:37;99753.72;;;19.77;58.37
70027;BME280;57506;50.092;15.804;2022-07-12T08:39:02;99744.72;;;20.05;59.22
70027;BME280;57506;50.092;15.804;2022-07-12T08:41:28;99736.59;;;20.22;59.19
70027;BME280;57506;50.092;15.804;2022-07-12T08:43:55;99719.84;;;20.92;61.01
70027;BME280;57506;50.092;15.804;2022-07-12T08:46:21;99723.19;;;20.66;56.67
70027;BME280;57506;50.092;15.804;2022-07-12T08:48:46;99732.84;;;20.68;55.11
70027;BME280;57506;50.092;15.804;2022-07-12T08:51:14;99737.22;;;20.01;56.40
70027;BME280;57506;50.092;15.804;2022-07-12T08:53:43;99731.69;;;19.84;55.23
70027;BME280;57506;50.092;15.804;2022-07-12T08:56:30;99745.59;;;19.82;55.75
70027;BME280;57506;50.092;15.804;2022-07-12T08:59:17;99738.88;;;19.62;56.04
70027;BME280;57506;50.092;15.804;2022-07-12T09:01:47;99755.28;;;19.62;55.88
70027;BME280;57506;50.092;15.804;2022-07-12T09:04:19;99755.38;;;19.55;56.75
70027;BME280;57506;50.092;15.804;2022-07-12T09:06:45;99749.78;;;19.50;55.52
70027;BME280;57506;50.092;15.804;2022-07-12T09:09:11;99757.00;;;19.33;56.90
70027;BME280;57506;50.092;15.804;2022-07-12T09:11:50;99753.44;;;19.20;59.08
70027;BME280;57506;50.092;15.804;2022-07-12T09:14:18;99774.47;;;18.67;64.51
70027;BME280;57506;50.092;15.804;2022-07-12T09:16:58;99766.78;;;18.27;63.13
70027;BME280;57506;50.092;15.804;2022-07-12T09:19:24;99755.47;;;18.42;61.87
70027;BME280;57506;50.092;15.804;2022-07-12T09:21:53;99758.56;;;18.64;61.96
70027;BME280;57506;50.092;15.804;2022-07-12T09:24:20;99751.47;;;18.86;62.33
70027;BME280;57506;50.092;15.804;2022-07-12T09:26:46;99755.34;;;19.08;61.56
70027;BME280;57506;50.092;15.804;2022-07-12T09:29:13;99747.97;;;19.20;60.46
70027;BME280;57506;50.092;15.804;2022-07-12T09:31:48;99744.31;;;19.27;62.07
70027;BME280;57506;50.092;15.804;2022-07-12T09:34:33;99739.19;;;19.65;59.63
70027;BME280;57506;50.092;15.804;2022-07-12T09:37:17;99737.78;;;19.74;58.93
70027;BME280;57506;50.092;15.804;2022-07-12T09:39:43;99742.97;;;19.87;59.53
70027;BME280;57506;50.092;15.804;2022-07-12T09:42:10;99742.06;;;20.22;60.03
70027;BME280;57506;50.092;15.804;2022-07-12T09:44:38;99737.53;;;20.27;57.60
70027;BME280;57506;50.092;15.804;2022-07-12T09:47:09;99725.59;;;20.45;57.37
70027;BME280;57506;50.092;15.804;2022-07-12T09:49:42;99729.09;;;20.57;55.55
70027;BME280;57506;50.092;15.804;2022-07-12T09:52:15;99731.94;;;20.96;54.26
70027;BME280;57506;50.092;15.804;2022-07-12T09:54:45;99731.94;;;20.96;51.58
70027;BME280;57506;50.092;15.804;2022-07-12T09:57:26;99735.81;;;21.67;53.97
70027;BME280;57506;50.092;15.804;2022-07-12T09:59:52;99732.56;;;21.32;49.89
70027;BME280;57506;50.092;15.804;2022-07-12T10:02:19;99738.59;;;20.83;49.43
70027;BME280;57506;50.092;15.804;2022-07-12T10:04:47;99731.97;;;20.51;50.83
70027;BME280;57506;50.092;15.804;2022-07-12T10:07:14;99727.63;;;21.17;48.92
70027;BME280;57506;50.092;15.804;2022-07-12T10:09:44;99731.50;;;21.71;48.21
70027;BME280;57506;50.092;15.804;2022-07-12T10:12:11;99732.13;;;21.06;47.43
70027;BME280;57506;50.092;15.804;2022-07-12T10:14:38;99720.97;;;21.13;47.29
70027;BME280;57506;50.092;15.804;2022-07-12T10:17:05;99717.75;;;21.33;45.67
70027;BME280;57506;50.092;15.804;2022-07-12T10:19:35;99724.38;;;21.53;44.27
70027;BME280;57506;50.092;15.804;2022-07-12T10:22:04;99713.91;;;21.50;46.43
70027;BME280;57506;50.092;15.804;2022-07-12T10:29:43;99718.72;;;21.60;48.72
70027;BME280;57506;50.092;15.804;2022-07-12T10:35:12;99727.00;;;22.25;46.77
70027;BME280;57506;50.092;15.804;2022-07-12T10:37:38;99712.78;;;22.07;46.81
70027;BME280;57506;50.092;15.804;2022-07-12T10:42:36;99706.84;;;21.76;47.31
70027;BME280;57506;50.092;15.804;2022-07-12T10:45:15;99726.06;;;21.76;44.35
70027;BME280;57506;50.092;15.804;2022-07-12T10:47:55;99713.53;;;22.24;43.43
70027;BME280;57506;50.092;15.804;2022-07-12T10:58:44;99722.16;;;22.11;42.75
70027;BME280;57506;50.092;15.804;2022-07-12T11:01:32;99706.81;;;21.71;45.75
70027;BME280;57506;50.092;15.804;2022-07-12T11:04:10;99697.22;;;21.95;45.24
70027;BME280;57506;50.092;15.804;2022-07-12T11:06:41;99712.81;;;21.68;44.89
70027;BME280;57506;50.092;15.804;2022-07-12T11:09:09;99712.31;;;22.37;43.06
70027;BME280;57506;50.092;15.804;2022-07-12T11:11:48;99700.69;;;22.83;42.81
70027;BME280;57506;50.092;15.804;2022-07-12T11:14:22;99720.38;;;23.02;38.34
70027;BME280;57506;50.092;15.804;2022-07-12T11:16:51;99704.00;;;22.58;41.03
70027;BME280;57506;50.092;15.804;2022-07-12T11:19:26;99704.25;;;22.57;41.92
70027;BME280;57506;50.092;15.804;2022-07-12T11:21:53;99719.03;;;22.51;41.53
70027;BME280;57506;50.092;15.804;2022-07-12T11:24:30;99706.16;;;22.29;42.30
70027;BME280;57506;50.092;15.804;2022-07-12T11:26:56;99709.28;;;22.65;43.09
70027;BME280;57506;50.092;15.804;2022-07-12T11:29:23;99696.97;;;22.67;41.59
70027;BME280;57506;50.092;15.804;2022-07-12T11:31:59;99693.13;;;22.68;41.91
70027;BME280;57506;50.092;15.804;2022-07-12T11:34:26;99703.78;;;22.65;40.90
70027;BME280;57506;50.092;15.804;2022-07-12T11:37:00;99699.31;;;22.81;41.80
70027;BME280;57506;50.092;15.804;2022-07-12T11:41:56;99703.44;;;23.15;41.47
70027;BME280;57506;50.092;15.804;2022-07-12T11:44:43;99701.50;;;22.57;38.11
70027;BME280;57506;50.092;15.804;2022-07-12T11:47:10;99700.91;;;22.77;38.91
70027;BME280;57506;50.092;15.804;2022-07-12T11:49:36;99697.28;;;22.71;40.81
70027;BME280;57506;50.092;15.804;2022-07-12T11:52:05;99688.78;;;22.73;41.95
70027;BME280;57506;50.092;15.804;2022-07-12T11:54:31;99692.59;;;22.72;42.33
70027;BME280;57506;50.092;15.804;2022-07-12T11:57:10;99695.88;;;22.68;42.09
70027;BME280;57506;50.092;15.804;2022-07-12T11:59:36;99706.19;;;22.56;42.57
70027;BME280;57506;50.092;15.804;2022-07-12T12:02:03;99706.97;;;22.79;42.32
70027;BME280;57506;50.092;15.804;2022-07-12T12:04:29;99700.75;;;23.25;41.29
70027;BME280;57506;50.092;15.804;2022-07-12T12:06:55;99692.09;;;23.49;43.23
70027;BME280;57506;50.092;15.804;2022-07-12T12:09:21;99693.63;;;23.29;41.49
70027;BME280;57506;50.092;15.804;2022-07-12T12:11:46;99707.81;;;22.79;39.91
70027;BME280;57506;50.092;15.804;2022-07-12T12:14:12;99692.81;;;22.65;40.82
70027;BME280;57506;50.092;15.804;2022-07-12T12:16:38;99703.47;;;22.61;41.12
70027;BME280;57506;50.092;15.804;2022-07-12T12:19:03;99703.38;;;22.51;43.46
70027;BME280;57506;50.092;15.804;2022-07-12T12:21:35;99714.16;;;22.58;44.79
70027;BME280;57506;50.092;15.804;2022-07-12T12:24:10;99706.72;;;22.53;45.20
70027;BME280;57506;50.092;15.804;2022-07-12T12:26:37;99699.25;;;22.22;44.79
70027;BME280;57506;50.092;15.804;2022-07-12T12:29:02;99709.13;;;22.23;44.17
70027;BME280;57506;50.092;15.804;2022-07-12T12:31:28;99723.63;;;22.18;43.26
70027;BME280;57506;50.092;15.804;2022-07-12T12:33:55;99705.34;;;22.29;42.84
70027;BME280;57506;50.092;15.804;2022-07-12T12:36:36;99691.41;;;22.62;43.06
70027;BME280;57506;50.092;15.804;2022-07-12T12:39:03;99698.66;;;23.06;42.10
70027;BME280;57506;50.092;15.804;2022-07-12T12:41:31;99702.63;;;23.52;41.28
70027;BME280;57506;50.092;15.804;2022-07-12T12:44:05;99693.47;;;23.09;36.93
70027;BME280;57506;50.092;15.804;2022-07-12T12:46:55;99705.66;;;22.59;39.95
70027;BME280;57506;50.092;15.804;2022-07-12T12:49:49;99690.91;;;22.39;41.93
70027;BME280;57506;50.092;15.804;2022-07-12T12:52:15;99712.81;;;22.60;42.10
70027;BME280;57506;50.092;15.804;2022-07-12T12:54:41;99688.06;;;23.19;42.20
70027;BME280;57506;50.092;15.804;2022-07-12T12:57:07;99688.53;;;23.48;39.16
70027;BME280;57506;50.092;15.804;2022-07-12T12:59:34;99673.25;;;23.72;40.53
70027;BME280;57506;50.092;15.804;2022-07-12T13:02:01;99679.34;;;23.75;38.63
70027;BME280;57506;50.092;15.804;2022-07-12T13:04:34;99683.09;;;23.53;37.83
70027;BME280;57506;50.092;15.804;2022-07-12T13:07:00;99671.63;;;23.29;40.95
70027;BME280;57506;50.092;15.804;2022-07-12T13:09:27;99684.84;;;22.95;41.44
70027;BME280;57506;50.092;15.804;2022-07-12T13:11:54;99696.13;;;22.67;41.72
70027;BME280;57506;50.092;15.804;2022-07-12T13:14:20;99684.16;;;22.51;41.77